createdAt,value
2019-06-10T16:16:47.467Z,4.47
2019-06-10T16:19:16.751Z,4.08
2019-06-10T16:21:46.758Z,3.75
2019-06-10T16:24:17.262Z,4.35
2019-06-10T16:26:46.431Z,4.08
2019-06-10T16:29:15.053Z,4.30
2019-06-10T16:31:43.495Z,4.45
2019-06-10T16:34:12.782Z,4.67
2019-06-10T16:36:42.833Z,4.65
2019-06-10T16:39:12.537Z,5.35
2019-06-10T16:41:43.088Z,4.47
2019-06-10T16:44:17.851Z,5.42
2019-06-10T16:46:47.158Z,4.90
2019-06-10T16:49:15.633Z,5.10
2019-06-10T16:51:44.558Z,4.92
2019-06-10T16:54:13.067Z,3.45
2019-06-10T16:56:43.510Z,4.28
2019-06-10T16:59:12.332Z,4.83
2019-06-10T17:01:42.804Z,4.95
2019-06-10T17:04:12.592Z,4.67
2019-06-10T17:06:42.185Z,4.53
2019-06-10T17:09:13.327Z,5.10
2019-06-10T17:11:42.653Z,5.12
2019-06-10T17:14:12.590Z,4.35
2019-06-10T17:16:41.295Z,4.50
2019-06-10T17:19:10.991Z,4.40
2019-06-10T17:21:39.469Z,4.37
2019-06-10T17:24:09.236Z,5.37
2019-06-10T17:26:39.441Z,5.17
2019-06-10T17:29:08.214Z,5.78
2019-06-10T17:31:36.808Z,5.58
2019-06-10T17:34:05.390Z,4.92
2019-06-10T17:36:35.456Z,4.85
2019-06-10T17:39:06.606Z,5.50
2019-06-10T17:41:35.413Z,4.20
2019-06-10T17:44:04.661Z,4.58
2019-06-10T17:46:35.320Z,6.22
2019-06-10T17:49:04.689Z,6.25
2019-06-10T17:51:35.704Z,4.75
2019-06-10T17:54:05.160Z,6.83
2019-06-10T17:56:36.156Z,6.97
2019-06-10T17:59:04.608Z,10.60
2019-06-10T18:01:34.185Z,9.73
2019-06-10T18:04:03.316Z,11.55
2019-06-10T18:06:34.796Z,10.75
2019-06-10T18:09:03.999Z,10.85
2019-06-10T18:11:35.674Z,9.40
2019-06-10T18:14:03.908Z,9.10
2019-06-10T18:16:35.868Z,8.70
2019-06-10T18:19:03.321Z,8.45
2019-06-10T18:21:34.524Z,7.47
2019-06-10T18:24:08.134Z,8.45
2019-06-10T18:26:37.292Z,8.68
2019-06-10T18:29:08.798Z,8.63
2019-06-10T18:31:37.044Z,14.25
2019-06-10T18:34:06.026Z,26.35
2019-06-10T18:36:35.888Z,16.23
2019-06-10T18:39:06.630Z,13.48
2019-06-10T18:41:35.116Z,15.85
2019-06-10T18:44:18.751Z,13.15
2019-06-10T18:46:36.468Z,11.12
2019-06-10T18:49:05.597Z,13.93
2019-06-10T18:51:36.954Z,12.80
2019-06-10T18:54:05.169Z,13.05
2019-06-10T18:56:35.642Z,11.08
2019-06-10T18:59:15.773Z,8.85
2019-06-10T19:01:34.691Z,9.38
2019-06-10T19:04:03.345Z,9.95
2019-06-10T19:06:33.865Z,8.78
2019-06-10T19:09:03.263Z,9.00
2019-06-10T19:11:36.799Z,7.85
2019-06-10T19:14:09.825Z,7.97
2019-06-10T19:16:38.609Z,8.38
2019-06-10T19:19:07.449Z,9.00
2019-06-10T19:21:36.297Z,8.83
2019-06-10T19:24:05.635Z,8.65
2019-06-10T19:26:36.998Z,7.72
2019-06-10T19:29:04.629Z,8.68
2019-06-10T19:31:36.268Z,7.35
2019-06-10T19:34:03.661Z,7.47
2019-06-10T19:36:33.500Z,7.62
2019-06-10T19:39:07.511Z,7.17
2019-06-10T19:41:41.113Z,6.78
2019-06-10T19:44:09.600Z,7.58
2019-06-10T19:46:42.966Z,6.65
2019-06-10T19:49:14.572Z,7.72
2019-06-10T19:51:46.302Z,7.60
2019-06-10T19:54:15.286Z,8.30
2019-06-10T19:56:43.948Z,6.83
2019-06-10T19:59:12.813Z,7.40
2019-06-10T20:01:45.894Z,6.67
2019-06-10T20:04:15.634Z,6.03
2019-06-10T20:06:48.386Z,6.92
2019-06-10T20:09:13.388Z,6.12
2019-06-10T20:11:45.617Z,7.55
2019-06-10T20:14:21.838Z,5.80
2019-06-10T20:16:53.681Z,5.50
2019-06-10T20:19:22.774Z,5.83
2019-06-10T20:21:51.776Z,5.67
2019-06-10T20:24:26.480Z,4.85
2019-06-10T20:26:58.865Z,5.25
2019-06-10T20:29:33.203Z,5.00
2019-06-10T20:32:03.729Z,5.37
2019-06-10T20:34:33.705Z,5.00
2019-06-10T20:37:04.757Z,4.42
2019-06-10T20:39:34.624Z,5.25
2019-06-10T20:42:03.908Z,5.05
2019-06-10T20:44:32.568Z,5.58
2019-06-10T20:47:01.284Z,5.85
2019-06-10T20:49:29.617Z,5.78
2019-06-10T20:52:08.122Z,5.92
2019-06-10T20:54:28.073Z,5.28
2019-06-10T20:56:56.282Z,6.00
2019-06-10T20:59:27.102Z,6.20
2019-06-10T21:01:55.407Z,6.25
2019-06-10T21:04:23.865Z,6.25
2019-06-10T21:06:53.155Z,5.55
2019-06-10T21:09:23.894Z,5.72
2019-06-10T21:11:54.389Z,5.65
2019-06-10T21:14:22.923Z,5.40
2019-06-10T21:16:53.573Z,5.95
2019-06-10T21:19:23.271Z,5.67
2019-06-10T21:21:54.484Z,7.40
2019-06-10T21:24:23.168Z,5.62
2019-06-10T21:26:54.727Z,6.12
2019-06-10T21:29:22.400Z,5.55
2019-06-10T21:31:54.438Z,5.05
2019-06-10T21:34:22.389Z,5.53
2019-06-10T21:36:54.013Z,4.97
2019-06-10T21:39:20.834Z,5.45
2019-06-10T21:41:52.694Z,5.47
2019-06-10T21:44:20.152Z,5.08
2019-06-10T21:46:48.794Z,5.75
2019-06-10T21:49:17.065Z,5.28
2019-06-10T21:51:48.265Z,5.40
2019-06-10T21:54:15.696Z,6.75
2019-06-10T21:56:47.075Z,5.22
2019-06-10T21:59:15.570Z,5.58
2019-06-10T22:01:44.921Z,4.80
2019-06-10T22:04:14.539Z,4.62
2019-06-10T22:06:43.853Z,4.97
2019-06-10T22:09:12.502Z,6.00
2019-06-10T22:11:42.298Z,7.62
2019-06-10T22:14:12.068Z,6.55
2019-06-10T22:16:42.179Z,6.58
2019-06-10T22:19:12.838Z,5.97
2019-06-10T22:21:42.553Z,5.78
2019-06-10T22:24:15.688Z,4.97
2019-06-10T22:26:44.725Z,4.67
2019-06-10T22:29:13.600Z,6.00
2019-06-10T22:31:42.873Z,4.95
2019-06-10T22:34:12.617Z,5.10
2019-06-10T22:36:42.330Z,4.50
2019-06-10T22:39:12.484Z,4.78
2019-06-10T22:41:42.622Z,4.58
2019-06-10T22:44:12.669Z,4.95
2019-06-10T22:46:42.531Z,3.70
2019-06-10T22:49:13.290Z,5.22
2019-06-10T22:51:42.904Z,4.25
2019-06-10T22:54:10.624Z,4.65
2019-06-10T22:56:38.845Z,4.22
2019-06-10T22:59:07.390Z,4.40
2019-06-10T23:01:38.418Z,4.70
2019-06-10T23:04:05.707Z,4.85
2019-06-10T23:06:34.090Z,4.85
2019-06-10T23:09:04.065Z,4.72
2019-06-10T23:11:33.982Z,4.42
2019-06-10T23:14:03.212Z,4.37
2019-06-10T23:16:31.745Z,5.03
2019-06-10T23:18:59.972Z,4.30
2019-06-10T23:21:28.177Z,4.53
2019-06-10T23:23:57.331Z,4.58
2019-06-10T23:26:27.389Z,5.50
2019-06-10T23:28:57.213Z,4.92
2019-06-10T23:31:25.650Z,4.65
2019-06-10T23:33:56.429Z,4.97
2019-06-10T23:36:23.958Z,5.20
2019-06-10T23:38:52.789Z,5.70
2019-06-10T23:41:22.477Z,4.45
2019-06-10T23:43:50.996Z,6.28
2019-06-10T23:46:19.100Z,4.40
2019-06-10T23:48:48.226Z,5.62
2019-06-10T23:51:16.441Z,6.10
2019-06-10T23:53:44.607Z,5.58
2019-06-10T23:56:13.001Z,6.28
2019-06-10T23:58:43.183Z,6.17
